createdAt,value
2018-07-15T00:00:05.367Z,6.27
2018-07-15T00:02:33.443Z,5.90
2018-07-15T00:05:01.524Z,5.60
2018-07-15T00:07:29.630Z,5.30
2018-07-15T00:09:57.683Z,5.80
2018-07-15T00:12:25.747Z,5.90
2018-07-15T00:14:53.825Z,5.97
2018-07-15T00:17:22.512Z,5.30
2018-07-15T00:19:50.632Z,5.13
2018-07-15T00:22:18.695Z,5.00
2018-07-15T00:24:47.023Z,5.00
2018-07-15T00:27:15.108Z,5.87
2018-07-15T00:29:43.211Z,5.50
2018-07-15T00:32:11.266Z,5.40
2018-07-15T00:34:39.478Z,5.57
2018-07-15T00:37:07.549Z,5.40
2018-07-15T00:39:35.610Z,5.37
2018-07-15T00:42:03.732Z,5.30
2018-07-15T00:44:31.833Z,6.17
2018-07-15T00:46:59.883Z,5.83
2018-07-15T00:49:27.947Z,5.50
2018-07-15T00:51:56.052Z,5.77
2018-07-15T00:54:24.110Z,6.63
2018-07-15T00:56:52.440Z,5.93
2018-07-15T00:59:20.607Z,5.90
2018-07-15T01:01:48.719Z,5.93
2018-07-15T01:04:16.804Z,6.00
2018-07-15T01:06:44.896Z,6.10
2018-07-15T01:09:13.327Z,6.70
2018-07-15T01:11:41.420Z,6.10
2018-07-15T01:14:09.827Z,5.60
2018-07-15T01:16:39.063Z,5.43
2018-07-15T01:19:07.132Z,5.73
2018-07-15T01:21:35.188Z,6.53
2018-07-15T01:24:03.537Z,7.43
2018-07-15T01:26:31.619Z,6.00
2018-07-15T01:28:59.692Z,5.90
2018-07-15T01:31:27.957Z,6.10
2018-07-15T01:33:56.038Z,5.60
2018-07-15T01:36:24.125Z,6.10
2018-07-15T01:38:52.181Z,6.50
2018-07-15T01:41:20.544Z,5.20
2018-07-15T01:43:48.615Z,5.20
2018-07-15T01:46:16.665Z,6.17
2018-07-15T01:48:44.748Z,5.97
2018-07-15T01:51:12.840Z,7.00
2018-07-15T01:53:40.920Z,6.47
2018-07-15T01:56:08.999Z,7.10
2018-07-15T01:58:37.135Z,7.07
2018-07-15T02:01:05.244Z,7.37
2018-07-15T02:03:33.311Z,6.77
2018-07-15T02:06:01.358Z,6.47
2018-07-15T02:08:29.424Z,6.63
2018-07-15T02:10:57.495Z,6.10
2018-07-15T02:13:25.574Z,6.47
2018-07-15T02:15:53.684Z,6.57
2018-07-15T02:18:21.747Z,7.33
2018-07-15T02:20:49.799Z,6.30
2018-07-15T02:23:18.040Z,6.87
2018-07-15T02:25:46.099Z,6.80
2018-07-15T02:28:14.165Z,6.67
2018-07-15T02:30:42.685Z,6.10
2018-07-15T02:33:10.779Z,6.20
2018-07-15T02:35:38.872Z,6.63
2018-07-15T02:38:06.928Z,6.47
2018-07-15T02:40:35.080Z,6.73
2018-07-15T02:43:03.188Z,6.47
2018-07-15T02:45:31.270Z,6.50
2018-07-15T02:47:59.365Z,7.07
2018-07-15T02:50:27.399Z,6.80
2018-07-15T02:52:55.474Z,6.60
2018-07-15T02:55:23.537Z,6.50
2018-07-15T02:57:51.815Z,5.77
2018-07-15T03:00:20.440Z,6.00
2018-07-15T03:02:48.505Z,6.50
2018-07-15T03:05:16.587Z,6.43
2018-07-15T03:07:44.655Z,6.70
2018-07-15T03:10:12.724Z,6.50
2018-07-15T03:12:40.812Z,6.50
2018-07-15T03:15:08.860Z,6.73
2018-07-15T03:17:36.897Z,7.20
2018-07-15T03:20:04.963Z,7.10
2018-07-15T03:22:33.119Z,6.73
2018-07-15T03:25:01.215Z,7.33
2018-07-15T03:27:29.296Z,6.47
2018-07-15T03:29:57.455Z,7.67
2018-07-15T03:32:25.552Z,7.53
2018-07-15T03:34:53.712Z,6.20
2018-07-15T03:37:21.829Z,6.80
2018-07-15T03:39:49.998Z,6.87
2018-07-15T03:42:18.072Z,6.50
2018-07-15T03:44:46.156Z,6.17
2018-07-15T03:47:14.344Z,6.47
2018-07-15T03:49:42.569Z,5.97
2018-07-15T03:52:10.860Z,6.77
2018-07-15T03:54:38.897Z,6.47
2018-07-15T03:57:06.960Z,6.53
2018-07-15T03:59:35.017Z,6.57
2018-07-15T04:02:03.083Z,7.00
2018-07-15T04:04:31.138Z,6.43
2018-07-15T04:06:59.187Z,6.50
2018-07-15T04:09:27.264Z,6.70
2018-07-15T04:11:55.306Z,6.47
2018-07-15T04:14:23.375Z,6.57
2018-07-15T04:16:51.651Z,6.60
2018-07-15T04:19:19.722Z,6.43
2018-07-15T04:21:47.757Z,6.73
2018-07-15T04:24:16.794Z,6.37
2018-07-15T04:26:44.973Z,6.63
2018-07-15T04:29:13.056Z,6.83
2018-07-15T04:31:41.096Z,6.00
2018-07-15T04:34:09.168Z,6.20
2018-07-15T04:36:37.224Z,5.77
2018-07-15T04:39:07.013Z,5.90
2018-07-15T04:41:35.084Z,5.33
2018-07-15T04:44:03.391Z,5.03
2018-07-15T04:46:31.439Z,5.00
2018-07-15T04:48:59.496Z,4.47
2018-07-15T04:51:27.561Z,4.58
2018-07-15T04:53:55.618Z,4.75
2018-07-15T04:56:23.683Z,4.67
2018-07-15T04:58:51.751Z,4.00
2018-07-15T05:01:19.781Z,3.87
2018-07-15T05:03:47.815Z,4.10
2018-07-15T05:06:16.203Z,4.20
2018-07-15T05:08:44.240Z,3.95
2018-07-15T05:11:12.353Z,4.17
2018-07-15T05:13:40.540Z,4.12
2018-07-15T05:16:08.608Z,3.80
2018-07-15T05:18:36.645Z,3.72
2018-07-15T05:21:05.636Z,4.37
2018-07-15T05:23:33.700Z,3.70
2018-07-15T05:26:01.866Z,3.15
2018-07-15T05:28:30.003Z,3.75
2018-07-15T05:30:58.310Z,4.08
2018-07-15T05:33:26.564Z,3.70
2018-07-15T05:35:54.853Z,3.83
2018-07-15T05:38:23.099Z,3.42
2018-07-15T05:40:51.156Z,3.67
2018-07-15T05:43:19.294Z,3.45
2018-07-15T05:45:47.373Z,3.75
2018-07-15T05:48:15.516Z,3.62
2018-07-15T05:50:43.572Z,3.33
2018-07-15T05:53:12.487Z,3.40
2018-07-15T05:55:40.547Z,3.30
2018-07-15T05:58:08.779Z,3.40
2018-07-15T06:00:36.964Z,2.83
2018-07-15T06:03:05.081Z,3.12
2018-07-15T06:05:33.134Z,3.50
2018-07-15T06:08:01.211Z,3.35
2018-07-15T06:10:29.301Z,3.20
2018-07-15T06:12:57.383Z,2.72
2018-07-15T06:15:25.451Z,3.25
2018-07-15T06:17:53.516Z,3.30
2018-07-15T06:20:21.563Z,3.55
2018-07-15T06:22:49.689Z,3.42
2018-07-15T06:25:17.685Z,3.65
2018-07-15T06:27:45.781Z,2.92
2018-07-15T06:30:13.864Z,3.75
2018-07-15T06:32:41.923Z,3.40
2018-07-15T06:35:10.063Z,3.55
2018-07-15T06:37:38.137Z,3.40
2018-07-15T06:40:06.456Z,3.70
2018-07-15T06:42:34.519Z,3.75
2018-07-15T06:45:02.612Z,3.35
2018-07-15T06:47:30.663Z,3.00
2018-07-15T06:49:58.694Z,3.52
2018-07-15T06:52:26.797Z,2.92
2018-07-15T06:54:55.013Z,2.83
2018-07-15T06:57:23.079Z,3.15
2018-07-15T06:59:52.835Z,3.12
2018-07-15T07:02:20.880Z,2.90
2018-07-15T07:04:48.927Z,2.60
2018-07-15T07:07:17.143Z,2.98
2018-07-15T07:09:45.151Z,3.62
2018-07-15T07:12:13.193Z,2.52
2018-07-15T07:14:41.419Z,3.10
2018-07-15T07:17:09.472Z,2.85
2018-07-15T07:19:37.576Z,3.70
2018-07-15T07:22:05.789Z,3.27
2018-07-15T07:24:33.859Z,2.77
2018-07-15T07:27:02.048Z,2.50
2018-07-15T07:29:30.125Z,2.62
2018-07-15T07:31:58.181Z,2.72
2018-07-15T07:34:26.234Z,2.42
2018-07-15T07:36:54.323Z,2.60
2018-07-15T07:39:22.417Z,2.77
2018-07-15T07:41:50.460Z,2.30
2018-07-15T07:44:19.451Z,2.52
2018-07-15T07:46:47.754Z,2.90
2018-07-15T07:49:15.799Z,2.50
2018-07-15T07:51:43.825Z,2.50
2018-07-15T07:54:11.949Z,2.55
2018-07-15T07:56:40.013Z,2.40
2018-07-15T07:59:08.067Z,2.20
2018-07-15T08:01:36.133Z,2.95
2018-07-15T08:04:04.219Z,2.67
2018-07-15T08:06:32.404Z,2.30
2018-07-15T08:09:00.469Z,2.10
2018-07-15T08:11:28.661Z,2.45
2018-07-15T08:13:56.689Z,2.25
2018-07-15T08:16:24.947Z,1.80
2018-07-15T08:18:53.011Z,2.05
2018-07-15T08:21:21.109Z,2.30
2018-07-15T08:23:49.411Z,2.00
2018-07-15T08:26:17.450Z,2.47
2018-07-15T08:28:45.498Z,2.17
2018-07-15T08:31:15.748Z,1.85
2018-07-15T08:33:43.847Z,1.77
2018-07-15T08:36:12.520Z,2.02
2018-07-15T08:38:40.924Z,1.80
2018-07-15T08:41:09.004Z,2.35
2018-07-15T08:43:37.179Z,1.92
2018-07-15T08:46:05.547Z,2.12
2018-07-15T08:48:33.714Z,2.05
2018-07-15T08:51:01.915Z,2.52
2018-07-15T08:53:30.376Z,2.10
2018-07-15T08:55:58.543Z,2.37
2018-07-15T08:58:26.825Z,2.30
2018-07-15T09:00:55.354Z,2.00
2018-07-15T09:03:23.604Z,1.80
2018-07-15T09:05:51.663Z,1.45
2018-07-15T09:08:19.709Z,1.55
2018-07-15T09:10:47.763Z,1.70
2018-07-15T09:13:15.819Z,1.80
2018-07-15T09:15:43.891Z,1.85
2018-07-15T09:18:12.064Z,2.35
2018-07-15T09:20:40.100Z,2.20
2018-07-15T09:23:08.137Z,1.98
2018-07-15T09:25:36.179Z,2.25
2018-07-15T09:28:04.212Z,2.90
2018-07-15T09:30:32.263Z,2.08
2018-07-15T09:33:01.347Z,1.60
2018-07-15T09:35:29.441Z,2.10
2018-07-15T09:37:57.503Z,1.90
2018-07-15T09:40:25.563Z,2.30
2018-07-15T09:42:53.583Z,1.90
2018-07-15T09:45:21.702Z,1.50
2018-07-15T09:47:49.762Z,1.72
2018-07-15T09:50:17.848Z,2.33
2018-07-15T09:52:46.212Z,1.50
2018-07-15T09:55:14.324Z,1.77
2018-07-15T09:57:42.348Z,1.70
2018-07-15T10:00:14.584Z,1.20
2018-07-15T10:02:42.659Z,1.57
2018-07-15T10:05:10.720Z,1.92
2018-07-15T10:07:38.929Z,2.42
2018-07-15T10:10:06.995Z,2.00
2018-07-15T10:12:35.073Z,1.87
2018-07-15T10:15:03.261Z,1.90
2018-07-15T10:17:31.465Z,1.75
2018-07-15T10:19:59.633Z,2.10
2018-07-15T10:22:27.910Z,1.60
2018-07-15T10:24:56.108Z,1.90
2018-07-15T10:27:24.484Z,1.50
2018-07-15T10:29:53.231Z,1.75
2018-07-15T10:32:21.573Z,1.45
2018-07-15T10:34:49.883Z,1.75
2018-07-15T10:37:18.077Z,2.20
2018-07-15T10:39:46.467Z,2.08
2018-07-15T10:42:14.532Z,1.22
2018-07-15T10:44:42.669Z,0.95
2018-07-15T10:47:10.722Z,1.50
2018-07-15T10:49:38.772Z,1.30
2018-07-15T10:52:07.035Z,1.47
2018-07-15T10:54:35.291Z,1.67
2018-07-15T10:57:03.328Z,2.00
2018-07-15T10:59:31.749Z,1.77
2018-07-15T11:01:59.784Z,1.85
2018-07-15T11:04:27.808Z,1.55
2018-07-15T11:06:55.868Z,1.82
2018-07-15T11:09:23.911Z,1.87
2018-07-15T11:11:51.947Z,1.60
2018-07-15T11:14:20.240Z,2.10
2018-07-15T11:16:48.306Z,1.82
2018-07-15T11:19:16.328Z,1.90
2018-07-15T11:21:44.476Z,1.77
2018-07-15T11:24:12.529Z,1.60
2018-07-15T11:26:40.588Z,1.87
2018-07-15T11:29:08.627Z,1.32
2018-07-15T11:31:36.701Z,1.75
2018-07-15T11:34:04.850Z,1.70
2018-07-15T11:36:32.899Z,2.02
2018-07-15T11:39:01.015Z,1.85
2018-07-15T11:41:29.095Z,1.95
2018-07-15T11:43:57.163Z,2.42
2018-07-15T11:46:25.466Z,2.33
2018-07-15T11:48:53.515Z,2.05
2018-07-15T11:51:21.539Z,2.33
2018-07-15T11:53:49.595Z,1.72
2018-07-15T11:56:17.630Z,1.95
2018-07-15T11:58:45.663Z,1.70
2018-07-15T12:01:13.718Z,2.20
2018-07-15T12:03:41.811Z,1.98
2018-07-15T12:06:09.860Z,1.95
2018-07-15T12:08:38.485Z,2.40
2018-07-15T12:11:06.603Z,1.82
2018-07-15T12:13:34.606Z,2.00
2018-07-15T12:16:02.715Z,2.17
2018-07-15T12:18:30.762Z,1.27
2018-07-15T12:20:58.834Z,1.60
2018-07-15T12:23:26.872Z,1.90
2018-07-15T12:25:55.082Z,1.80
2018-07-15T12:28:23.865Z,1.70
2018-07-15T12:30:52.127Z,1.70
2018-07-15T12:33:21.216Z,1.82
2018-07-15T12:35:49.833Z,2.02
2018-07-15T12:38:17.886Z,2.22
2018-07-15T12:40:45.971Z,2.10
2018-07-15T12:43:14.087Z,2.35
2018-07-15T12:45:42.220Z,2.05
2018-07-15T12:48:10.540Z,2.25
2018-07-15T12:50:38.583Z,2.37
2018-07-15T12:53:06.808Z,1.90
2018-07-15T12:55:35.018Z,3.50
2018-07-15T12:58:03.294Z,2.20
2018-07-15T13:00:31.552Z,1.72
2018-07-15T13:02:59.613Z,1.65
2018-07-15T13:05:27.669Z,2.25
2018-07-15T13:07:56.065Z,1.50
2018-07-15T13:10:24.125Z,1.60
2018-07-15T13:12:52.205Z,1.40
2018-07-15T13:15:20.270Z,1.67
2018-07-15T13:17:49.096Z,1.50
2018-07-15T13:20:17.153Z,2.10
2018-07-15T13:22:45.222Z,1.80
2018-07-15T13:25:13.296Z,2.27
2018-07-15T13:27:41.349Z,1.98
2018-07-15T13:30:09.430Z,1.57
2018-07-15T13:32:37.500Z,2.10
2018-07-15T13:35:05.680Z,1.85
2018-07-15T13:37:33.861Z,1.80
2018-07-15T13:40:02.178Z,1.75
2018-07-15T13:42:30.581Z,2.10
2018-07-15T13:44:58.969Z,1.80
2018-07-15T13:47:27.801Z,1.72
2018-07-15T13:49:56.901Z,1.75
2018-07-15T13:52:25.404Z,1.60
2018-07-15T13:54:53.983Z,1.60
2018-07-15T13:57:22.384Z,1.70
2018-07-15T13:59:54.708Z,1.90
2018-07-15T14:02:23.342Z,1.98
2018-07-15T14:04:51.529Z,1.77
2018-07-15T14:07:20.009Z,1.55
2018-07-15T14:09:48.570Z,1.80
2018-07-15T14:12:16.716Z,1.90
2018-07-15T14:14:44.778Z,2.30
2018-07-15T14:17:12.888Z,2.17
2018-07-15T14:19:41.309Z,2.15
2018-07-15T14:22:09.336Z,2.30
2018-07-15T14:24:37.377Z,2.65
2018-07-15T14:27:05.747Z,2.00
2018-07-15T14:29:33.957Z,1.90
2018-07-15T14:32:02.230Z,2.90
2018-07-15T14:34:30.489Z,1.98
2018-07-15T14:36:58.955Z,1.80
2018-07-15T14:39:35.975Z,1.90
2018-07-15T14:42:04.775Z,2.15
2018-07-15T14:44:33.208Z,2.27
2018-07-15T14:47:01.502Z,2.02
2018-07-15T14:49:29.806Z,2.10
2018-07-15T14:51:58.373Z,2.10
2018-07-15T14:54:26.499Z,2.35
2018-07-15T14:56:54.636Z,2.45
2018-07-15T14:59:22.711Z,2.08
2018-07-15T15:01:50.856Z,2.20
2018-07-15T15:04:18.918Z,2.30
2018-07-15T15:06:47.063Z,2.05
2018-07-15T15:09:15.140Z,1.85
2018-07-15T15:11:43.517Z,2.55
2018-07-15T15:14:11.900Z,2.02
2018-07-15T15:16:39.943Z,2.45
2018-07-15T15:19:08.067Z,3.40
2018-07-15T15:21:36.269Z,1.70
2018-07-15T15:24:04.686Z,2.35
2018-07-15T15:26:32.991Z,2.10
2018-07-15T15:29:01.867Z,2.62
2018-07-15T15:31:30.448Z,2.40
2018-07-15T15:33:59.371Z,2.25
2018-07-15T15:36:28.597Z,2.27
2018-07-15T15:38:57.927Z,2.50
2018-07-15T15:41:26.733Z,2.20
2018-07-15T15:43:55.784Z,2.17
2018-07-15T15:46:24.848Z,2.67
2018-07-15T15:48:53.903Z,2.25
2018-07-15T15:51:23.376Z,2.17
2018-07-15T15:53:52.636Z,2.30
2018-07-15T15:56:21.109Z,2.35
2018-07-15T15:58:49.843Z,2.47
2018-07-15T16:01:17.983Z,2.22
2018-07-15T16:03:46.028Z,2.27
2018-07-15T16:06:14.116Z,2.40
2018-07-15T16:08:42.178Z,2.27
2018-07-15T16:11:10.272Z,2.20
2018-07-15T16:13:38.322Z,1.95
2018-07-15T16:16:06.507Z,1.85
2018-07-15T16:18:34.795Z,2.20
2018-07-15T16:21:03.446Z,2.58
2018-07-15T16:23:32.040Z,2.02
2018-07-15T16:26:00.885Z,1.77
2018-07-15T16:28:29.185Z,2.47
2018-07-15T16:30:57.265Z,2.12
2018-07-15T16:33:25.346Z,2.12
2018-07-15T16:35:53.644Z,2.20
2018-07-15T16:38:22.211Z,2.30
2018-07-15T16:40:50.525Z,1.60
2018-07-15T16:43:19.023Z,1.82
2018-07-15T16:45:47.301Z,1.65
2018-07-15T16:48:15.441Z,2.65
2018-07-15T16:50:43.588Z,2.10
2018-07-15T16:53:11.664Z,2.00
2018-07-15T16:55:40.236Z,1.80
2018-07-15T16:58:08.488Z,1.65
2018-07-15T17:00:36.761Z,2.15
2018-07-15T17:03:05.656Z,2.33
2018-07-15T17:05:33.648Z,2.20
2018-07-15T17:08:01.789Z,2.08
2018-07-15T17:10:29.936Z,1.77
2018-07-15T17:12:58.008Z,2.15
2018-07-15T17:15:26.237Z,1.72
2018-07-15T17:17:54.675Z,1.80
2018-07-15T17:20:22.815Z,1.37
2018-07-15T17:22:51.157Z,1.85
2018-07-15T17:25:19.255Z,1.85
2018-07-15T17:27:47.351Z,2.60
2018-07-15T17:30:15.463Z,1.85
2018-07-15T17:32:43.848Z,2.00
2018-07-15T17:35:11.904Z,2.10
2018-07-15T17:37:40.041Z,2.47
2018-07-15T17:40:08.745Z,1.85
2018-07-15T17:42:38.253Z,2.00
2018-07-15T17:45:06.554Z,1.90
2018-07-15T17:47:34.963Z,2.00
2018-07-15T17:50:03.097Z,1.60
2018-07-15T17:52:31.219Z,2.05
2018-07-15T17:54:59.298Z,1.70
2018-07-15T17:57:27.405Z,2.17
2018-07-15T17:59:55.891Z,1.95
2018-07-15T18:02:23.956Z,3.67
2018-07-15T18:04:52.176Z,2.17
2018-07-15T18:07:21.152Z,2.30
2018-07-15T18:09:49.199Z,1.90
2018-07-15T18:12:17.468Z,2.50
2018-07-15T18:14:45.571Z,2.33
2018-07-15T18:17:13.624Z,2.05
2018-07-15T18:19:41.714Z,2.55
2018-07-15T18:22:10.510Z,2.50
2018-07-15T18:24:38.546Z,2.27
2018-07-15T18:27:07.371Z,2.52
2018-07-15T18:29:35.562Z,2.30
2018-07-15T18:32:03.850Z,2.30
2018-07-15T18:34:31.905Z,2.60
2018-07-15T18:37:00.292Z,2.50
2018-07-15T18:39:28.603Z,2.33
2018-07-15T18:41:57.090Z,2.10
2018-07-15T18:44:25.641Z,2.45
2018-07-15T18:46:54.216Z,2.25
2018-07-15T18:49:22.993Z,2.20
2018-07-15T18:51:51.409Z,2.42
2018-07-15T18:54:19.816Z,2.60
2018-07-15T18:56:48.514Z,2.58
2018-07-15T18:59:16.688Z,2.40
2018-07-15T19:01:44.732Z,2.35
2018-07-15T19:04:13.176Z,2.83
2018-07-15T19:06:41.633Z,2.42
2018-07-15T19:09:10.227Z,2.60
2018-07-15T19:11:43.714Z,2.50
2018-07-15T19:14:12.219Z,2.45
2018-07-15T19:16:41.789Z,2.35
2018-07-15T19:19:09.929Z,2.58
2018-07-15T19:21:38.723Z,2.25
2018-07-15T19:24:07.016Z,2.50
2018-07-15T19:26:35.416Z,2.37
2018-07-15T19:29:03.967Z,2.47
2018-07-15T19:31:32.277Z,2.65
2018-07-15T19:34:02.883Z,2.92
2018-07-15T19:36:31.279Z,2.90
2018-07-15T19:38:59.809Z,2.75
2018-07-15T19:41:28.915Z,3.35
2018-07-15T19:43:58.751Z,2.92
2018-07-15T19:46:27.094Z,2.45
2018-07-15T19:48:56.559Z,2.67
2018-07-15T19:51:25.532Z,2.35
2018-07-15T19:53:54.037Z,2.12
2018-07-15T19:56:22.979Z,2.52
2018-07-15T19:58:51.069Z,2.20
2018-07-15T20:01:19.620Z,2.50
2018-07-15T20:03:47.775Z,2.20
2018-07-15T20:06:16.885Z,2.30
2018-07-15T20:08:44.957Z,2.50
2018-07-15T20:11:13.248Z,2.40
2018-07-15T20:13:41.566Z,2.40
2018-07-15T20:16:09.855Z,2.22
2018-07-15T20:18:38.651Z,2.50
2018-07-15T20:21:06.880Z,2.45
2018-07-15T20:23:35.030Z,2.60
2018-07-15T20:26:03.195Z,2.77
2018-07-15T20:28:31.808Z,2.27
2018-07-15T20:31:00.472Z,2.45
2018-07-15T20:33:28.652Z,2.33
2018-07-15T20:35:57.234Z,3.10
2018-07-15T20:38:25.780Z,2.25
2018-07-15T20:40:54.172Z,2.52
2018-07-15T20:43:23.054Z,2.37
2018-07-15T20:45:51.101Z,2.50
2018-07-15T20:48:19.211Z,2.60
2018-07-15T20:50:47.335Z,2.40
2018-07-15T20:53:15.403Z,2.37
2018-07-15T20:55:43.924Z,2.70
2018-07-15T20:58:11.981Z,2.92
2018-07-15T21:00:40.034Z,2.75
2018-07-15T21:03:08.112Z,2.90
2018-07-15T21:05:36.200Z,2.50
2018-07-15T21:08:04.451Z,2.90
2018-07-15T21:10:33.024Z,2.67
2018-07-15T21:13:01.369Z,2.50
2018-07-15T21:15:29.674Z,2.47
2018-07-15T21:17:57.741Z,2.45
2018-07-15T21:20:26.126Z,2.27
2018-07-15T21:22:54.229Z,2.52
2018-07-15T21:25:23.247Z,2.58
2018-07-15T21:27:51.335Z,2.47
2018-07-15T21:30:19.407Z,2.45
2018-07-15T21:32:47.459Z,2.62
2018-07-15T21:35:15.520Z,2.72
2018-07-15T21:37:43.623Z,2.40
2018-07-15T21:40:11.656Z,2.58
2018-07-15T21:42:39.699Z,2.80
2018-07-15T21:45:07.811Z,2.50
2018-07-15T21:47:35.872Z,2.37
2018-07-15T21:50:04.115Z,2.92
2018-07-15T21:52:32.294Z,2.33
2018-07-15T21:55:00.492Z,2.50
2018-07-15T21:57:28.763Z,2.45
2018-07-15T21:59:57.040Z,2.72
2018-07-15T22:02:25.138Z,2.25
2018-07-15T22:04:56.494Z,2.40
2018-07-15T22:07:35.821Z,2.75
2018-07-15T22:10:13.751Z,2.55
2018-07-15T22:12:41.789Z,2.62
2018-07-15T22:15:09.843Z,3.08
2018-07-15T22:17:37.926Z,2.90
2018-07-15T22:20:06.313Z,2.60
2018-07-15T22:22:34.350Z,2.67
2018-07-15T22:25:02.427Z,2.95
2018-07-15T22:27:30.715Z,2.87
2018-07-15T22:29:58.911Z,2.92
2018-07-15T22:32:27.207Z,2.87
2018-07-15T22:34:55.249Z,3.15
2018-07-15T22:37:23.300Z,2.90
2018-07-15T22:39:51.344Z,3.00
2018-07-15T22:42:19.439Z,2.95
2018-07-15T22:44:47.487Z,2.98
2018-07-15T22:47:15.532Z,3.17
2018-07-15T22:49:43.618Z,2.80
2018-07-15T22:52:11.667Z,2.95
2018-07-15T22:54:39.736Z,3.20
2018-07-15T22:57:07.803Z,2.70
2018-07-15T22:59:35.844Z,3.15
2018-07-15T23:02:03.912Z,3.35
2018-07-15T23:05:46.820Z,3.35
2018-07-15T23:08:14.891Z,3.67
2018-07-15T23:10:43.244Z,3.00
2018-07-15T23:13:12.045Z,3.60
2018-07-15T23:15:40.457Z,4.00
2018-07-15T23:18:08.732Z,3.80
2018-07-15T23:20:37.647Z,3.95
2018-07-15T23:23:06.547Z,3.65
2018-07-15T23:25:34.718Z,3.92
2018-07-15T23:28:03.426Z,4.20
2018-07-15T23:30:32.226Z,3.60
2018-07-15T23:33:00.619Z,4.35
2018-07-15T23:35:28.667Z,4.47
2018-07-15T23:37:57.383Z,4.80
2018-07-15T23:40:25.601Z,3.90
2018-07-15T23:42:54.559Z,4.67
2018-07-15T23:45:23.290Z,4.60
2018-07-15T23:47:51.320Z,3.93
2018-07-15T23:50:19.403Z,4.28
2018-07-15T23:52:47.501Z,4.83
2018-07-15T23:55:15.573Z,4.03
2018-07-15T23:57:43.645Z,4.55
